sensor_id;sensor_type;location;lat;lon;timestamp;P1;durP1;ratioP1;P2;durP2;ratioP2
54143;SDS011;40050;47.324;18.792;2022-08-21T00:01:41;3.71;;;3.03;;
54143;SDS011;40050;47.324;18.792;2022-08-21T00:03:43;2.90;;;2.83;;
54143;SDS011;40050;47.324;18.792;2022-08-21T00:05:46;3.80;;;3.22;;
54143;SDS011;40050;47.324;18.792;2022-08-21T00:07:45;3.07;;;2.73;;
54143;SDS011;40050;47.324;18.792;2022-08-21T00:09:46;3.08;;;2.83;;
54143;SDS011;40050;47.324;18.792;2022-08-21T00:11:47;4.44;;;3.03;;
54143;SDS011;40050;47.324;18.792;2022-08-21T00:13:49;4.34;;;3.22;;
54143;SDS011;40050;47.324;18.792;2022-08-21T00:15:53;3.71;;;2.83;;
54143;SDS011;40050;47.324;18.792;2022-08-21T00:17:54;2.98;;;2.93;;
54143;SDS011;40050;47.324;18.792;2022-08-21T00:19:55;4.25;;;2.54;;
54143;SDS011;40050;47.324;18.792;2022-08-21T00:21:56;4.70;;;2.83;;
54143;SDS011;40050;47.324;18.792;2022-08-21T00:23:57;2.99;;;2.73;;
54143;SDS011;40050;47.324;18.792;2022-08-21T00:25:58;3.16;;;2.93;;
54143;SDS011;40050;47.324;18.792;2022-08-21T00:27:59;3.43;;;2.64;;
54143;SDS011;40050;47.324;18.792;2022-08-21T00:30:00;3.61;;;2.54;;
54143;SDS011;40050;47.324;18.792;2022-08-21T00:32:01;3.34;;;3.12;;
54143;SDS011;40050;47.324;18.792;2022-08-21T00:34:03;3.61;;;3.22;;
54143;SDS011;40050;47.324;18.792;2022-08-21T00:36:05;2.89;;;2.83;;
54143;SDS011;40050;47.324;18.792;2022-08-21T00:38:07;2.99;;;2.83;;
54143;SDS011;40050;47.324;18.792;2022-08-21T00:40:09;5.15;;;3.03;;
54143;SDS011;40050;47.324;18.792;2022-08-21T00:42:09;3.80;;;2.93;;
54143;SDS011;40050;47.324;18.792;2022-08-21T00:44:11;3.71;;;2.83;;
54143;SDS011;40050;47.324;18.792;2022-08-21T00:46:11;3.17;;;2.93;;
54143;SDS011;40050;47.324;18.792;2022-08-21T00:48:12;3.07;;;2.83;;
54143;SDS011;40050;47.324;18.792;2022-08-21T00:50:13;6.23;;;2.83;;
54143;SDS011;40050;47.324;18.792;2022-08-21T00:52:24;3.61;;;2.93;;
54143;SDS011;40050;47.324;18.792;2022-08-21T00:54:26;3.70;;;3.02;;
54143;SDS011;40050;47.324;18.792;2022-08-21T00:56:26;3.52;;;3.12;;
54143;SDS011;40050;47.324;18.792;2022-08-21T00:58:29;4.06;;;3.02;;
54143;SDS011;40050;47.324;18.792;2022-08-21T01:00:35;4.23;;;2.93;;
54143;SDS011;40050;47.324;18.792;2022-08-21T01:02:34;3.60;;;3.12;;
54143;SDS011;40050;47.324;18.792;2022-08-21T01:04:35;3.97;;;3.22;;
54143;SDS011;40050;47.324;18.792;2022-08-21T01:06:36;4.69;;;3.12;;
54143;SDS011;40050;47.324;18.792;2022-08-21T01:08:38;3.33;;;3.22;;
54143;SDS011;40050;47.324;18.792;2022-08-21T01:10:39;3.33;;;3.02;;
54143;SDS011;40050;47.324;18.792;2022-08-21T01:12:40;4.58;;;3.41;;
54143;SDS011;40050;47.324;18.792;2022-08-21T01:14:42;3.69;;;3.12;;
54143;SDS011;40050;47.324;18.792;2022-08-21T01:16:47;4.76;;;3.21;;
54143;SDS011;40050;47.324;18.792;2022-08-21T01:18:48;4.57;;;3.60;;
54143;SDS011;40050;47.324;18.792;2022-08-21T01:21:08;4.13;;;3.70;;
54143;SDS011;40050;47.324;18.792;2022-08-21T01:22:50;4.32;;;3.51;;
54143;SDS011;40050;47.324;18.792;2022-08-21T01:24:50;3.69;;;3.51;;
54143;SDS011;40050;47.324;18.792;2022-08-21T01:26:53;5.04;;;3.61;;
54143;SDS011;40050;47.324;18.792;2022-08-21T01:30:57;3.69;;;3.61;;
54143;SDS011;40050;47.324;18.792;2022-08-21T01:32:58;5.40;;;3.71;;
54143;SDS011;40050;47.324;18.792;2022-08-21T01:34:59;4.32;;;3.70;;
54143;SDS011;40050;47.324;18.792;2022-08-21T01:37:00;4.86;;;4.09;;
54143;SDS011;40050;47.324;18.792;2022-08-21T01:39:02;4.04;;;3.70;;
54143;SDS011;40050;47.324;18.792;2022-08-21T01:41:02;4.76;;;3.99;;
54143;SDS011;40050;47.324;18.792;2022-08-21T01:43:03;6.18;;;4.28;;
54143;SDS011;40050;47.324;18.792;2022-08-21T01:45:05;4.84;;;3.99;;
54143;SDS011;40050;47.324;18.792;2022-08-21T01:47:06;5.94;;;4.39;;
54143;SDS011;40050;47.324;18.792;2022-08-21T01:49:06;5.65;;;4.19;;
54143;SDS011;40050;47.324;18.792;2022-08-21T01:51:08;5.21;;;4.29;;
54143;SDS011;40050;47.324;18.792;2022-08-21T01:53:09;5.49;;;4.29;;
54143;SDS011;40050;47.324;18.792;2022-08-21T01:55:11;7.19;;;4.58;;
54143;SDS011;40050;47.324;18.792;2022-08-21T01:57:13;5.29;;;4.48;;
54143;SDS011;40050;47.324;18.792;2022-08-21T01:59:14;8.17;;;5.26;;
54143;SDS011;40050;47.324;18.792;2022-08-21T02:01:15;5.84;;;4.97;;
54143;SDS011;40050;47.324;18.792;2022-08-21T02:03:16;6.81;;;5.16;;
54143;SDS011;40050;47.324;18.792;2022-08-21T02:05:17;7.88;;;5.16;;
54143;SDS011;40050;47.324;18.792;2022-08-21T02:07:18;7.17;;;5.06;;
54143;SDS011;40050;47.324;18.792;2022-08-21T02:09:19;6.44;;;4.86;;
54143;SDS011;40050;47.324;18.792;2022-08-21T02:11:20;7.69;;;5.25;;
54143;SDS011;40050;47.324;18.792;2022-08-21T02:13:21;7.15;;;5.25;;
54143;SDS011;40050;47.324;18.792;2022-08-21T02:15:22;6.70;;;4.86;;
54143;SDS011;40050;47.324;18.792;2022-08-21T02:17:23;7.96;;;5.15;;
54143;SDS011;40050;47.324;18.792;2022-08-21T02:19:24;5.63;;;4.86;;
54143;SDS011;40050;47.324;18.792;2022-08-21T02:21:25;6.43;;;4.96;;
54143;SDS011;40050;47.324;18.792;2022-08-21T02:23:26;6.69;;;5.15;;
54143;SDS011;40050;47.324;18.792;2022-08-21T02:25:27;6.44;;;5.15;;
54143;SDS011;40050;47.324;18.792;2022-08-21T02:27:27;6.61;;;5.05;;
54143;SDS011;40050;47.324;18.792;2022-08-21T02:29:29;6.43;;;4.86;;
54143;SDS011;40050;47.324;18.792;2022-08-21T02:31:30;5.46;;;4.67;;
54143;SDS011;40050;47.324;18.792;2022-08-21T02:33:31;5.91;;;4.96;;
54143;SDS011;40050;47.324;18.792;2022-08-21T02:35:32;6.36;;;4.77;;
54143;SDS011;40050;47.324;18.792;2022-08-21T02:37:33;6.36;;;4.96;;
54143;SDS011;40050;47.324;18.792;2022-08-21T02:39:34;5.37;;;4.67;;
54143;SDS011;40050;47.324;18.792;2022-08-21T02:41:39;6.54;;;4.67;;
54143;SDS011;40050;47.324;18.792;2022-08-21T02:43:40;5.29;;;4.67;;
54143;SDS011;40050;47.324;18.792;2022-08-21T02:45:42;6.64;;;4.97;;
54143;SDS011;40050;47.324;18.792;2022-08-21T02:47:53;5.65;;;4.48;;
54143;SDS011;40050;47.324;18.792;2022-08-21T02:49:44;6.45;;;4.48;;
54143;SDS011;40050;47.324;18.792;2022-08-21T02:51:47;7.98;;;4.58;;
54143;SDS011;40050;47.324;18.792;2022-08-21T02:53:48;6.72;;;4.77;;
54143;SDS011;40050;47.324;18.792;2022-08-21T02:55:52;5.64;;;4.38;;
54143;SDS011;40050;47.324;18.792;2022-08-21T02:57:54;5.10;;;4.18;;
54143;SDS011;40050;47.324;18.792;2022-08-21T02:59:54;5.73;;;4.96;;
54143;SDS011;40050;47.324;18.792;2022-08-21T03:01:55;6.10;;;4.87;;
54143;SDS011;40050;47.324;18.792;2022-08-21T03:03:57;6.71;;;4.86;;
54143;SDS011;40050;47.324;18.792;2022-08-21T03:05:59;6.79;;;4.67;;
54143;SDS011;40050;47.324;18.792;2022-08-21T03:08:01;7.34;;;5.35;;
54143;SDS011;40050;47.324;18.792;2022-08-21T03:10:01;8.68;;;4.86;;
54143;SDS011;40050;47.324;18.792;2022-08-21T03:12:02;6.43;;;5.06;;
54143;SDS011;40050;47.324;18.792;2022-08-21T03:14:03;8.93;;;5.25;;
54143;SDS011;40050;47.324;18.792;2022-08-21T03:16:04;7.42;;;5.25;;
54143;SDS011;40050;47.324;18.792;2022-08-21T03:18:05;7.94;;;4.86;;
54143;SDS011;40050;47.324;18.792;2022-08-21T03:20:06;7.23;;;4.57;;
54143;SDS011;40050;47.324;18.792;2022-08-21T03:22:07;6.71;;;4.96;;
54143;SDS011;40050;47.324;18.792;2022-08-21T03:24:08;8.51;;;4.87;;
54143;SDS011;40050;47.324;18.792;2022-08-21T03:26:09;7.61;;;5.16;;
54143;SDS011;40050;47.324;18.792;2022-08-21T03:28:11;6.70;;;4.86;;
54143;SDS011;40050;47.324;18.792;2022-08-21T03:30:11;7.68;;;5.25;;
54143;SDS011;40050;47.324;18.792;2022-08-21T03:32:12;7.59;;;5.15;;
54143;SDS011;40050;47.324;18.792;2022-08-21T03:34:13;6.34;;;4.66;;
54143;SDS011;40050;47.324;18.792;2022-08-21T03:36:15;6.44;;;5.15;;
54143;SDS011;40050;47.324;18.792;2022-08-21T03:38:16;6.19;;;4.96;;
54143;SDS011;40050;47.324;18.792;2022-08-21T03:40:17;7.45;;;5.26;;
54143;SDS011;40050;47.324;18.792;2022-08-21T03:42:18;6.64;;;5.06;;
54143;SDS011;40050;47.324;18.792;2022-08-21T03:44:19;6.00;;;5.16;;
54143;SDS011;40050;47.324;18.792;2022-08-21T03:46:20;7.43;;;5.16;;
54143;SDS011;40050;47.324;18.792;2022-08-21T03:48:28;8.78;;;5.35;;
54143;SDS011;40050;47.324;18.792;2022-08-21T03:50:31;9.50;;;5.16;;
54143;SDS011;40050;47.324;18.792;2022-08-21T03:52:31;6.36;;;4.77;;
54143;SDS011;40050;47.324;18.792;2022-08-21T03:54:32;5.99;;;5.35;;
54143;SDS011;40050;47.324;18.792;2022-08-21T03:56:33;7.90;;;5.45;;
54143;SDS011;40050;47.324;18.792;2022-08-21T03:58:34;9.42;;;5.74;;
54143;SDS011;40050;47.324;18.792;2022-08-21T04:00:35;6.72;;;5.16;;
54143;SDS011;40050;47.324;18.792;2022-08-21T04:02:40;9.03;;;5.54;;
54143;SDS011;40050;47.324;18.792;2022-08-21T04:04:38;6.18;;;5.45;;
54143;SDS011;40050;47.324;18.792;2022-08-21T04:06:39;9.02;;;5.74;;
54143;SDS011;40050;47.324;18.792;2022-08-21T04:08:40;7.67;;;5.25;;
54143;SDS011;40050;47.324;18.792;2022-08-21T04:10:41;6.25;;;5.35;;
54143;SDS011;40050;47.324;18.792;2022-08-21T04:12:42;6.70;;;5.06;;
54143;SDS011;40050;47.324;18.792;2022-08-21T04:14:43;8.51;;;5.74;;
54143;SDS011;40050;47.324;18.792;2022-08-21T04:16:44;9.31;;;5.35;;
54143;SDS011;40050;47.324;18.792;2022-08-21T04:18:45;10.22;;;5.35;;
54143;SDS011;40050;47.324;18.792;2022-08-21T04:20:48;6.54;;;5.25;;
54143;SDS011;40050;47.324;18.792;2022-08-21T04:22:48;6.56;;;5.26;;
54143;SDS011;40050;47.324;18.792;2022-08-21T04:24:48;6.04;;;4.97;;
54143;SDS011;40050;47.324;18.792;2022-08-21T04:26:49;6.91;;;4.77;;
54143;SDS011;40050;47.324;18.792;2022-08-21T04:28:51;5.74;;;4.67;;
54143;SDS011;40050;47.324;18.792;2022-08-21T04:30:52;6.09;;;4.48;;
54143;SDS011;40050;47.324;18.792;2022-08-21T04:32:56;5.74;;;4.28;;
54143;SDS011;40050;47.324;18.792;2022-08-21T04:35:04;4.95;;;4.29;;
54143;SDS011;40050;47.324;18.792;2022-08-21T04:36:57;5.14;;;3.90;;
54143;SDS011;40050;47.324;18.792;2022-08-21T04:38:58;4.95;;;3.90;;
54143;SDS011;40050;47.324;18.792;2022-08-21T04:40:59;4.41;;;3.70;;
54143;SDS011;40050;47.324;18.792;2022-08-21T04:43:01;4.14;;;3.51;;
54143;SDS011;40050;47.324;18.792;2022-08-21T04:45:01;4.87;;;3.61;;
54143;SDS011;40050;47.324;18.792;2022-08-21T04:47:02;4.96;;;3.90;;
54143;SDS011;40050;47.324;18.792;2022-08-21T04:49:03;4.95;;;3.71;;
54143;SDS011;40050;47.324;18.792;2022-08-21T04:51:24;4.07;;;3.52;;
54143;SDS011;40050;47.324;18.792;2022-08-21T04:53:18;4.88;;;3.42;;
54143;SDS011;40050;47.324;18.792;2022-08-21T04:55:20;4.33;;;3.32;;
54143;SDS011;40050;47.324;18.792;2022-08-21T04:57:25;3.60;;;3.22;;
54143;SDS011;40050;47.324;18.792;2022-08-21T04:59:33;3.61;;;3.22;;
54143;SDS011;40050;47.324;18.792;2022-08-21T05:01:34;4.32;;;3.41;;
54143;SDS011;40050;47.324;18.792;2022-08-21T05:03:34;3.87;;;3.22;;
54143;SDS011;40050;47.324;18.792;2022-08-21T05:05:35;4.23;;;3.41;;
54143;SDS011;40050;47.324;18.792;2022-08-21T05:07:38;5.86;;;3.51;;
54143;SDS011;40050;47.324;18.792;2022-08-21T05:09:40;4.88;;;3.32;;
54143;SDS011;40050;47.324;18.792;2022-08-21T05:11:41;5.79;;;3.12;;
54143;SDS011;40050;47.324;18.792;2022-08-21T05:13:43;3.61;;;3.42;;
54143;SDS011;40050;47.324;18.792;2022-08-21T05:15:44;3.35;;;3.03;;
54143;SDS011;40050;47.324;18.792;2022-08-21T05:17:45;3.44;;;3.03;;
54143;SDS011;40050;47.324;18.792;2022-08-21T05:19:46;9.25;;;3.23;;
54143;SDS011;40050;47.324;18.792;2022-08-21T05:21:47;4.91;;;3.33;;
54143;SDS011;40050;47.324;18.792;2022-08-21T05:23:48;3.27;;;3.03;;
54143;SDS011;40050;47.324;18.792;2022-08-21T05:25:49;3.46;;;3.03;;
54143;SDS011;40050;47.324;18.792;2022-08-21T05:27:50;4.45;;;3.03;;
54143;SDS011;40050;47.324;18.792;2022-08-21T05:29:51;4.17;;;3.03;;
54143;SDS011;40050;47.324;18.792;2022-08-21T05:31:52;3.63;;;3.32;;
54143;SDS011;40050;47.324;18.792;2022-08-21T05:33:53;3.98;;;3.42;;
54143;SDS011;40050;47.324;18.792;2022-08-21T05:35:54;3.27;;;3.13;;
54143;SDS011;40050;47.324;18.792;2022-08-21T05:37:55;3.55;;;3.13;;
54143;SDS011;40050;47.324;18.792;2022-08-21T05:39:56;3.00;;;2.93;;
54143;SDS011;40050;47.324;18.792;2022-08-21T05:41:56;3.54;;;3.23;;
54143;SDS011;40050;47.324;18.792;2022-08-21T05:43:57;4.47;;;3.43;;
54143;SDS011;40050;47.324;18.792;2022-08-21T05:46:01;4.65;;;3.13;;
54143;SDS011;40050;47.324;18.792;2022-08-21T05:48:05;3.83;;;3.23;;
54143;SDS011;40050;47.324;18.792;2022-08-21T05:50:03;4.65;;;2.84;;
54143;SDS011;40050;47.324;18.792;2022-08-21T05:52:04;4.11;;;3.23;;
54143;SDS011;40050;47.324;18.792;2022-08-21T05:54:04;5.38;;;2.94;;
54143;SDS011;40050;47.324;18.792;2022-08-21T05:56:06;3.84;;;3.14;;
54143;SDS011;40050;47.324;18.792;2022-08-21T05:58:07;3.75;;;2.74;;
54143;SDS011;40050;47.324;18.792;2022-08-21T06:00:08;2.93;;;2.55;;
54143;SDS011;40050;47.324;18.792;2022-08-21T06:02:09;10.35;;;2.94;;
54143;SDS011;40050;47.324;18.792;2022-08-21T06:04:11;3.03;;;2.55;;
54143;SDS011;40050;47.324;18.792;2022-08-21T06:06:11;3.48;;;2.75;;
54143;SDS011;40050;47.324;18.792;2022-08-21T06:08:13;2.94;;;2.85;;
54143;SDS011;40050;47.324;18.792;2022-08-21T06:10:13;3.03;;;2.95;;
54143;SDS011;40050;47.324;18.792;2022-08-21T06:12:14;4.69;;;2.75;;
54143;SDS011;40050;47.324;18.792;2022-08-21T06:14:15;4.50;;;2.85;;
54143;SDS011;40050;47.324;18.792;2022-08-21T06:16:16;2.76;;;2.55;;
54143;SDS011;40050;47.324;18.792;2022-08-21T06:18:17;3.69;;;2.85;;
54143;SDS011;40050;47.324;18.792;2022-08-21T06:20:22;2.86;;;2.46;;
54143;SDS011;40050;47.324;18.792;2022-08-21T06:22:22;3.24;;;2.56;;
54143;SDS011;40050;47.324;18.792;2022-08-21T06:24:23;3.89;;;2.76;;
54143;SDS011;40050;47.324;18.792;2022-08-21T06:26:24;3.44;;;2.36;;
54143;SDS011;40050;47.324;18.792;2022-08-21T06:28:31;3.53;;;2.56;;
54143;SDS011;40050;47.324;18.792;2022-08-21T06:30:32;2.88;;;2.76;;
54143;SDS011;40050;47.324;18.792;2022-08-21T06:32:34;3.44;;;2.56;;
54143;SDS011;40050;47.324;18.792;2022-08-21T06:34:37;4.83;;;2.86;;
54143;SDS011;40050;47.324;18.792;2022-08-21T06:36:35;2.98;;;2.66;;
54143;SDS011;40050;47.324;18.792;2022-08-21T06:38:36;3.36;;;2.76;;
54143;SDS011;40050;47.324;18.792;2022-08-21T06:40:38;4.01;;;2.66;;
54143;SDS011;40050;47.324;18.792;2022-08-21T06:42:44;2.98;;;2.76;;
54143;SDS011;40050;47.324;18.792;2022-08-21T06:44:47;2.71;;;2.57;;
54143;SDS011;40050;47.324;18.792;2022-08-21T06:46:48;3.26;;;2.66;;
54143;SDS011;40050;47.324;18.792;2022-08-21T06:48:49;3.28;;;2.47;;
54143;SDS011;40050;47.324;18.792;2022-08-21T06:50:50;3.37;;;2.77;;
54143;SDS011;40050;47.324;18.792;2022-08-21T06:52:58;4.14;;;2.87;;
54143;SDS011;40050;47.324;18.792;2022-08-21T06:54:52;2.63;;;2.47;;
54143;SDS011;40050;47.324;18.792;2022-08-21T06:56:56;2.92;;;2.57;;
54143;SDS011;40050;47.324;18.792;2022-08-21T06:58:54;3.68;;;2.77;;
54143;SDS011;40050;47.324;18.792;2022-08-21T07:00:55;2.94;;;2.58;;
54143;SDS011;40050;47.324;18.792;2022-08-21T07:02:56;3.79;;;2.68;;
54143;SDS011;40050;47.324;18.792;2022-08-21T07:04:57;4.92;;;2.77;;
54143;SDS011;40050;47.324;18.792;2022-08-21T07:06:57;4.36;;;2.58;;
54143;SDS011;40050;47.324;18.792;2022-08-21T07:08:59;3.13;;;2.77;;
54143;SDS011;40050;47.324;18.792;2022-08-21T07:11:00;3.23;;;2.88;;
54143;SDS011;40050;47.324;18.792;2022-08-21T07:13:01;3.80;;;2.48;;
54143;SDS011;40050;47.324;18.792;2022-08-21T07:15:03;3.05;;;2.78;;
54143;SDS011;40050;47.324;18.792;2022-08-21T07:17:03;3.72;;;2.78;;
54143;SDS011;40050;47.324;18.792;2022-08-21T07:19:04;3.44;;;2.78;;
54143;SDS011;40050;47.324;18.792;2022-08-21T07:21:05;3.92;;;2.88;;
54143;SDS011;40050;47.324;18.792;2022-08-21T07:23:08;2.87;;;2.48;;
54143;SDS011;40050;47.324;18.792;2022-08-21T07:25:08;3.45;;;2.78;;
54143;SDS011;40050;47.324;18.792;2022-08-21T07:27:09;3.73;;;2.68;;
54143;SDS011;40050;47.324;18.792;2022-08-21T07:29:10;3.64;;;2.68;;
54143;SDS011;40050;47.324;18.792;2022-08-21T07:31:11;4.02;;;3.18;;
54143;SDS011;40050;47.324;18.792;2022-08-21T07:33:12;4.13;;;3.18;;
54143;SDS011;40050;47.324;18.792;2022-08-21T07:35:13;3.64;;;2.78;;
54143;SDS011;40050;47.324;18.792;2022-08-21T07:37:14;3.75;;;2.98;;
54143;SDS011;40050;47.324;18.792;2022-08-21T07:39:15;5.18;;;3.08;;
54143;SDS011;40050;47.324;18.792;2022-08-21T07:41:18;4.32;;;3.08;;
54143;SDS011;40050;47.324;18.792;2022-08-21T07:43:18;4.88;;;3.08;;
54143;SDS011;40050;47.324;18.792;2022-08-21T07:45:20;5.28;;;2.68;;
54143;SDS011;40050;47.324;18.792;2022-08-21T07:47:20;4.14;;;3.28;;
54143;SDS011;40050;47.324;18.792;2022-08-21T07:49:21;4.03;;;2.68;;
54143;SDS011;40050;47.324;18.792;2022-08-21T07:51:23;4.41;;;2.98;;
54143;SDS011;40050;47.324;18.792;2022-08-21T07:53:23;3.74;;;2.88;;
54143;SDS011;40050;47.324;18.792;2022-08-21T07:55:24;3.55;;;2.68;;
54143;SDS011;40050;47.324;18.792;2022-08-21T07:57:25;5.00;;;3.08;;
54143;SDS011;40050;47.324;18.792;2022-08-21T07:59:26;3.66;;;3.08;;
54143;SDS011;40050;47.324;18.792;2022-08-21T08:01:27;4.62;;;3.18;;
54143;SDS011;40050;47.324;18.792;2022-08-21T08:03:28;4.33;;;2.88;;
54143;SDS011;40050;47.324;18.792;2022-08-21T08:05:30;4.34;;;3.28;;
54143;SDS011;40050;47.324;18.792;2022-08-21T08:07:30;5.78;;;3.08;;
54143;SDS011;40050;47.324;18.792;2022-08-21T08:09:31;4.14;;;3.28;;
54143;SDS011;40050;47.324;18.792;2022-08-21T08:11:33;5.70;;;2.89;;
54143;SDS011;40050;47.324;18.792;2022-08-21T08:13:38;3.67;;;2.89;;
54143;SDS011;40050;47.324;18.792;2022-08-21T08:15:36;5.80;;;3.09;;
54143;SDS011;40050;47.324;18.792;2022-08-21T08:17:36;3.96;;;3.08;;
54143;SDS011;40050;47.324;18.792;2022-08-21T08:19:37;3.67;;;3.08;;
54143;SDS011;40050;47.324;18.792;2022-08-21T08:21:38;4.45;;;2.89;;
54143;SDS011;40050;47.324;18.792;2022-08-21T08:23:43;4.36;;;3.29;;
54143;SDS011;40050;47.324;18.792;2022-08-21T08:25:44;5.14;;;3.19;;
54143;SDS011;40050;47.324;18.792;2022-08-21T08:27:46;4.45;;;3.19;;
54143;SDS011;40050;47.324;18.792;2022-08-21T08:29:47;4.84;;;3.19;;
54143;SDS011;40050;47.324;18.792;2022-08-21T08:31:48;3.97;;;3.58;;
54143;SDS011;40050;47.324;18.792;2022-08-21T08:33:49;4.37;;;3.39;;
54143;SDS011;40050;47.324;18.792;2022-08-21T08:35:50;5.54;;;3.39;;
54143;SDS011;40050;47.324;18.792;2022-08-21T08:37:51;4.85;;;3.49;;
54143;SDS011;40050;47.324;18.792;2022-08-21T08:39:52;5.44;;;3.19;;
54143;SDS011;40050;47.324;18.792;2022-08-21T08:41:58;4.67;;;3.69;;
54143;SDS011;40050;47.324;18.792;2022-08-21T08:43:54;5.05;;;3.19;;
54143;SDS011;40050;47.324;18.792;2022-08-21T08:45:56;3.88;;;3.29;;
54143;SDS011;40050;47.324;18.792;2022-08-21T08:47:58;5.72;;;3.49;;
54143;SDS011;40050;47.324;18.792;2022-08-21T08:50:06;3.59;;;3.09;;
54143;SDS011;40050;47.324;18.792;2022-08-21T08:52:43;5.42;;;3.39;;
54143;SDS011;40050;47.324;18.792;2022-08-21T08:54:38;3.58;;;2.89;;
54143;SDS011;40050;47.324;18.792;2022-08-21T08:56:35;4.27;;;3.09;;
54143;SDS011;40050;47.324;18.792;2022-08-21T08:58:37;3.68;;;2.99;;
54143;SDS011;40050;47.324;18.792;2022-08-21T09:00:40;3.69;;;2.99;;
54143;SDS011;40050;47.324;18.792;2022-08-21T09:02:43;4.17;;;3.29;;
54143;SDS011;40050;47.324;18.792;2022-08-21T09:04:45;5.04;;;3.49;;
54143;SDS011;40050;47.324;18.792;2022-08-21T09:07:04;6.11;;;3.39;;
54143;SDS011;40050;47.324;18.792;2022-08-21T09:09:29;4.37;;;3.19;;
54143;SDS011;40050;47.324;18.792;2022-08-21T09:11:56;5.05;;;3.39;;
54143;SDS011;40050;47.324;18.792;2022-08-21T09:16:20;6.02;;;3.59;;
54143;SDS011;40050;47.324;18.792;2022-08-21T09:18:30;4.95;;;3.79;;
54143;SDS011;40050;47.324;18.792;2022-08-21T09:20:47;6.33;;;3.29;;
54143;SDS011;40050;47.324;18.792;2022-08-21T09:25:08;3.79;;;3.49;;
54143;SDS011;40050;47.324;18.792;2022-08-21T09:27:16;3.60;;;3.09;;
54143;SDS011;40050;47.324;18.792;2022-08-21T09:29:17;6.03;;;3.19;;
54143;SDS011;40050;47.324;18.792;2022-08-21T09:31:28;3.70;;;3.09;;
54143;SDS011;40050;47.324;18.792;2022-08-21T09:33:19;3.31;;;3.09;;
54143;SDS011;40050;47.324;18.792;2022-08-21T09:35:47;4.88;;;2.89;;
54143;SDS011;40050;47.324;18.792;2022-08-21T09:39:57;4.50;;;3.19;;
54143;SDS011;40050;47.324;18.792;2022-08-21T09:42:04;4.50;;;3.09;;
54143;SDS011;40050;47.324;18.792;2022-08-21T09:44:01;7.43;;;3.59;;
54143;SDS011;40050;47.324;18.792;2022-08-21T09:46:19;4.70;;;3.29;;
54143;SDS011;40050;47.324;18.792;2022-08-21T09:48:14;3.81;;;3.39;;
54143;SDS011;40050;47.324;18.792;2022-08-21T09:50:13;4.99;;;3.69;;
54143;SDS011;40050;47.324;18.792;2022-08-21T09:52:18;4.70;;;3.29;;
54143;SDS011;40050;47.324;18.792;2022-08-21T09:54:14;3.82;;;3.39;;
54143;SDS011;40050;47.324;18.792;2022-08-21T09:56:27;3.92;;;3.29;;
54143;SDS011;40050;47.324;18.792;2022-08-21T09:58:29;3.82;;;3.19;;
54143;SDS011;40050;47.324;18.792;2022-08-21T10:00:25;4.11;;;3.19;;
54143;SDS011;40050;47.324;18.792;2022-08-21T10:02:29;4.99;;;3.19;;
54143;SDS011;40050;47.324;18.792;2022-08-21T10:04:40;4.20;;;3.29;;
54143;SDS011;40050;47.324;18.792;2022-08-21T10:06:51;4.10;;;3.49;;
54143;SDS011;40050;47.324;18.792;2022-08-21T10:09:09;4.98;;;3.49;;
54143;SDS011;40050;47.324;18.792;2022-08-21T10:11:01;4.39;;;3.29;;
54143;SDS011;40050;47.324;18.792;2022-08-21T10:13:16;5.17;;;3.89;;
54143;SDS011;40050;47.324;18.792;2022-08-21T10:17:52;4.49;;;3.49;;
54143;SDS011;40050;47.324;18.792;2022-08-21T10:24:40;3.61;;;3.29;;
54143;SDS011;40050;47.324;18.792;2022-08-21T10:28:51;5.37;;;3.39;;
54143;SDS011;40050;47.324;18.792;2022-08-21T10:31:04;3.71;;;2.99;;
54143;SDS011;40050;47.324;18.792;2022-08-21T10:33:37;5.66;;;4.19;;
54143;SDS011;40050;47.324;18.792;2022-08-21T10:38:01;4.39;;;3.59;;
54143;SDS011;40050;47.324;18.792;2022-08-21T10:45:11;3.81;;;3.09;;
54143;SDS011;40050;47.324;18.792;2022-08-21T10:47:06;3.22;;;2.79;;
54143;SDS011;40050;47.324;18.792;2022-08-21T10:51:45;6.34;;;3.19;;
54143;SDS011;40050;47.324;18.792;2022-08-21T10:54:01;5.76;;;3.29;;
54143;SDS011;40050;47.324;18.792;2022-08-21T10:58:26;5.87;;;4.19;;
54143;SDS011;40050;47.324;18.792;2022-08-21T11:00:43;3.71;;;2.99;;
54143;SDS011;40050;47.324;18.792;2022-08-21T11:02:55;5.94;;;3.29;;
54143;SDS011;40050;47.324;18.792;2022-08-21T11:05:05;4.58;;;3.39;;
54143;SDS011;40050;47.324;18.792;2022-08-21T11:07:15;6.33;;;4.09;;
54143;SDS011;40050;47.324;18.792;2022-08-21T11:09:18;5.26;;;4.19;;
54143;SDS011;40050;47.324;18.792;2022-08-21T11:11:27;5.26;;;3.79;;
54143;SDS011;40050;47.324;18.792;2022-08-21T11:13:49;5.17;;;3.79;;
54143;SDS011;40050;47.324;18.792;2022-08-21T11:15:48;5.17;;;3.59;;
54143;SDS011;40050;47.324;18.792;2022-08-21T11:17:47;4.78;;;3.49;;
54143;SDS011;40050;47.324;18.792;2022-08-21T11:19:54;6.24;;;3.39;;
54143;SDS011;40050;47.324;18.792;2022-08-21T11:24:29;5.36;;;3.59;;
54143;SDS011;40050;47.324;18.792;2022-08-21T11:26:39;4.77;;;3.59;;
54143;SDS011;40050;47.324;18.792;2022-08-21T11:28:45;4.97;;;3.49;;
54143;SDS011;40050;47.324;18.792;2022-08-21T11:30:46;5.07;;;3.39;;
54143;SDS011;40050;47.324;18.792;2022-08-21T11:33:06;3.99;;;3.49;;
54143;SDS011;40050;47.324;18.792;2022-08-21T11:37:31;5.37;;;3.69;;
54143;SDS011;40050;47.324;18.792;2022-08-21T11:39:38;6.54;;;3.79;;
54143;SDS011;40050;47.324;18.792;2022-08-21T11:41:47;4.59;;;3.59;;
54143;SDS011;40050;47.324;18.792;2022-08-21T11:43:59;5.17;;;3.59;;
54143;SDS011;40050;47.324;18.792;2022-08-21T11:46:11;4.39;;;3.39;;
54143;SDS011;40050;47.324;18.792;2022-08-21T11:50:33;4.09;;;2.99;;
54143;SDS011;40050;47.324;18.792;2022-08-21T11:52:46;4.09;;;2.89;;
54143;SDS011;40050;47.324;18.792;2022-08-21T11:55:07;3.80;;;2.89;;
54143;SDS011;40050;47.324;18.792;2022-08-21T11:59:18;3.80;;;3.09;;
54143;SDS011;40050;47.324;18.792;2022-08-21T12:01:24;5.85;;;2.89;;
54143;SDS011;40050;47.324;18.792;2022-08-21T12:03:31;3.51;;;3.29;;
54143;SDS011;40050;47.324;18.792;2022-08-21T12:05:37;3.80;;;2.99;;
54143;SDS011;40050;47.324;18.792;2022-08-21T12:07:44;3.80;;;3.09;;
54143;SDS011;40050;47.324;18.792;2022-08-21T12:10:06;3.32;;;2.69;;
54143;SDS011;40050;47.324;18.792;2022-08-21T12:12:31;4.59;;;3.29;;
54143;SDS011;40050;47.324;18.792;2022-08-21T12:14:40;4.98;;;3.39;;
54143;SDS011;40050;47.324;18.792;2022-08-21T12:16:45;3.02;;;2.59;;
54143;SDS011;40050;47.324;18.792;2022-08-21T12:19:07;3.32;;;2.79;;
54143;SDS011;40050;47.324;18.792;2022-08-21T12:21:20;4.58;;;2.49;;
54143;SDS011;40050;47.324;18.792;2022-08-21T12:23:23;3.71;;;2.39;;
54143;SDS011;40050;47.324;18.792;2022-08-21T12:25:19;2.44;;;2.29;;
54143;SDS011;40050;47.324;18.792;2022-08-21T12:27:30;1.95;;;1.79;;
54143;SDS011;40050;47.324;18.792;2022-08-21T12:29:51;2.73;;;1.99;;
54143;SDS011;40050;47.324;18.792;2022-08-21T12:31:59;2.05;;;1.89;;
54143;SDS011;40050;47.324;18.792;2022-08-21T12:34:04;2.54;;;1.89;;
54143;SDS011;40050;47.324;18.792;2022-08-21T12:36:14;3.02;;;1.99;;
54143;SDS011;40050;47.324;18.792;2022-08-21T12:40:20;2.83;;;1.99;;
54143;SDS011;40050;47.324;18.792;2022-08-21T12:42:20;2.15;;;1.70;;
54143;SDS011;40050;47.324;18.792;2022-08-21T12:44:34;2.44;;;2.09;;
54143;SDS011;40050;47.324;18.792;2022-08-21T12:46:36;2.43;;;1.99;;
54143;SDS011;40050;47.324;18.792;2022-08-21T12:48:45;2.04;;;1.89;;
54143;SDS011;40050;47.324;18.792;2022-08-21T12:50:54;2.92;;;1.89;;
54143;SDS011;40050;47.324;18.792;2022-08-21T12:53:09;3.30;;;2.19;;